This is the latest recevied weather packets stored in our database for station/object DM4XI-13. If no packets are shown the sender has not sent any weather packets the latest 10 day(s).
| Time | Temp. | Humidity | Pressure | Rain* | Wind** | Luminosity | Snow |
|---|---|---|---|---|---|---|---|
| 1777863505 | 15.56° C | 53% | 1012.5 hPa | 0 mm | 0.89 m/s, 292° | 0 W/m² | - |
| 1777863443 | 15.56° C | 54% | 1012.4 hPa | 0 mm | 0 m/s | 0 W/m² | - |
| 1777863383 | 15.56° C | 53% | 1012.4 hPa | 0 mm | 0.45 m/s, 252° | 0 W/m² | - |
| 1777863321 | 15.56° C | 53% | 1012.5 hPa | 0 mm | 0.45 m/s, 255° | 0 W/m² | - |
| 1777863260 | 15.56° C | 53% | 1012.5 hPa | 0 mm | 0.45 m/s, 190° | 0 W/m² | - |
| 1777863200 | 15.56° C | 53% | 1012.5 hPa | 0 mm | 0.45 m/s, 232° | 0 W/m² | - |
| 1777863138 | 15.56° C | 53% | 1012.5 hPa | 0 mm | 0.45 m/s, 231° | 0 W/m² | - |
| 1777863078 | 15.56° C | 53% | 1012.5 hPa | 0 mm | 0 m/s | 0 W/m² | - |
| 1777863016 | 15.56° C | 53% | 1012.6 hPa | 0 mm | 0.45 m/s, 224° | 0 W/m² | - |
| 1777862956 | 15.56° C | 53% | 1012.4 hPa | 0 mm | 0 m/s | 0 W/m² | - |
| 1777862895 | 15.56° C | 53% | 1012.5 hPa | 0 mm | 0 m/s | 0 W/m² | - |
| 1777862833 | 15.56° C | 52% | 1012.4 hPa | 0 mm | 1.34 m/s, 277° | 0 W/m² | - |
| 1777862772 | 15.56° C | 53% | 1012.5 hPa | 0 mm | 0 m/s | 0 W/m² | - |
| 1777862711 | 15.56° C | 53% | 1012.5 hPa | 0 mm | 0.89 m/s, 252° | 0 W/m² | - |
| 1777862650 | 15.56° C | 52% | 1012.5 hPa | 0 mm | 0.45 m/s, 223° | 0 W/m² | - |
| 1777862589 | 15.56° C | 52% | 1012.3 hPa | 0 mm | 0.89 m/s, 268° | 0 W/m² | - |
| 1777862528 | 15.56° C | 52% | 1012.4 hPa | 0 mm | 0.89 m/s, 254° | 0 W/m² | - |
| 1777862467 | 15.56° C | 52% | 1012.3 hPa | 0 mm | 1.34 m/s, 277° | 0 W/m² | - |
| 1777862407 | 15.56° C | 52% | 1012.3 hPa | 0 mm | 1.34 m/s, 298° | 0 W/m² | - |
| 1777862345 | 15.56° C | 52% | 1012.4 hPa | 0 mm | 1.79 m/s, 259° | 0 W/m² | - |
| 1777862285 | 15.56° C | 53% | 1012.5 hPa | 0 mm | 1.79 m/s, 287° | 0 W/m² | - |
| 1777862223 | 15.56° C | 53% | 1012.3 hPa | 0 mm | 1.79 m/s, 302° | 0 W/m² | - |
| 1777862162 | 15.56° C | 53% | 1012.3 hPa | 0 mm | 0.45 m/s, 247° | 0 W/m² | - |
| 1777862101 | 15.56° C | 53% | 1012.4 hPa | 0 mm | 1.34 m/s, 267° | 0 W/m² | - |
| 1777862040 | 15.56° C | 53% | 1012.1 hPa | 0 mm | 1.79 m/s, 336° | 0 W/m² | - |
* Rain latest hour (hover to see other rain measurements)
** Current wind speed in m/s (hover to see current wind gust speed)